Time;durP1;ratioP1;P1;durP2;ratioP2;P2;SDS_P1;SDS_P2;PMS_P1;PMS_P2;Temp;Humidity;BMP_temperature;BMP_pressure;BME280_temperature;BME280_humidity;BME280_pressure;Samples;Min_cycle;Max_cycle;Signal;HPM_P1;HPM_P2
2022/11/27 00:02:16;;;;;;;54.40;25.20;;;;;;;1.14;90.89;101818.77;100371;1294;99241;-58
2022/11/27 00:04:46;;;;;;;59.70;28.60;;;;;;;1.20;90.89;101815.60;100377;1297;94425;-58
2022/11/27 00:07:17;;;;;;;52.90;26.30;;;;;;;1.27;90.68;101819.80;100398;1298;80520;-62
2022/11/27 00:09:47;;;;;;;59.40;28.10;;;;;;;1.27;90.63;101821.20;100400;1297;88362;-61
2022/11/27 00:12:15;;;;;;;59.80;27.70;;;;;;;1.27;90.84;101819.27;100400;1297;79351;-58
2022/11/27 00:14:50;;;;;;;52.60;27.20;;;;;;;1.29;90.86;101821.04;100444;1293;97975;-58
2022/11/27 00:17:19;;;;;;;;;;;;;;;1.25;90.78;101817.39;100356;1292;94349;-58
2022/11/27 00:19:49;;;;;;;60.10;28.40;;;;;;;1.24;90.69;101816.77;100275;1297;82786;-58
2022/11/27 00:22:19;;;;;;;54.70;25.10;;;;;;;1.22;90.73;101813.54;100398;1298;87276;-61
2022/11/27 00:24:53;;;;;;;56.70;25.20;;;;;;;1.21;90.71;101810.39;100347;1297;82164;-61
2022/11/27 00:27:23;;;;;;;57.90;24.30;;;;;;;1.21;90.68;101819.98;100366;1299;98218;-58
2022/11/27 00:29:52;;;;;;;60.60;26.30;;;;;;;1.16;90.68;101816.55;100305;1296;95795;-58
2022/11/27 00:32:24;;;;;;;56.70;26.60;;;;;;;1.14;90.73;101816.31;100337;1297;81933;-61
2022/11/27 00:34:54;;;;;;;51.90;23.70;;;;;;;1.16;90.72;101819.03;100353;1297;87732;-61
2022/11/27 00:37:26;;;;;;;54.70;25.90;;;;;;;1.20;90.92;101822.00;100339;1294;82343;-59
2022/11/27 00:39:57;;;;;;;54.40;24.60;;;;;;;1.24;90.91;101821.41;100335;1297;97896;-59
2022/11/27 00:42:26;;;;;;;53.60;24.00;;;;;;;1.27;90.81;101819.98;100336;1296;93211;-59
2022/11/27 00:44:55;;;;;;;57.50;26.20;;;;;;;1.29;90.89;101815.77;100342;1293;82931;-59
2022/11/27 00:47:25;;;;;;;61.20;28.40;;;;;;;1.28;90.82;101814.74;100362;1297;86422;-59
2022/11/27 00:49:56;;;;;;;59.30;26.10;;;;;;;1.30;90.91;101813.58;100346;1299;78871;-59
2022/11/27 00:52:28;;;;;;;54.10;25.70;;;;;;;1.29;90.80;101809.35;100356;1297;99429;-61
2022/11/27 00:55:00;;;;;;;54.80;23.80;;;;;;;1.28;90.81;101811.02;100368;1299;95209;-62
2022/11/27 00:57:29;;;;;;;58.20;25.60;;;;;;;1.27;90.85;101808.62;100379;1298;82274;-59
2022/11/27 01:00:01;;;;;;;57.80;26.50;;;;;;;1.24;90.83;101812.50;100358;1294;89157;-59
2022/11/27 01:02:30;;;;;;;52.50;25.30;;;;;;;1.20;90.70;101804.59;100354;1291;82037;-61
2022/11/27 01:05:05;;;;;;;55.00;25.90;;;;;;;1.19;90.84;101808.73;100323;1299;100378;-61
2022/11/27 01:07:34;;;;;;;52.10;24.30;;;;;;;1.24;90.95;101808.41;100310;1297;93599;-61
2022/11/27 01:10:03;;;;;;;46.40;23.80;;;;;;;1.31;90.95;101813.31;100381;1297;82416;-61
2022/11/27 01:12:34;;;;;;;50.10;24.90;;;;;;;1.35;90.70;101814.45;100372;1291;88731;-59
2022/11/27 01:15:08;;;;;;;51.70;26.10;;;;;;;1.37;90.66;101804.94;100341;1297;79682;-59
2022/11/27 01:17:37;;;;;;;53.80;26.00;;;;;;;1.37;90.55;101807.96;100364;1297;98474;-59
2022/11/27 01:20:11;;;;;;;56.00;25.40;;;;;;;1.29;90.67;101810.77;100317;1297;94644;-60
2022/11/27 01:22:40;;;;;;;56.00;24.50;;;;;;;1.28;90.79;101808.52;100353;1299;80381;-62
2022/11/27 01:25:11;;;;;;;52.60;25.50;;;;;;;1.26;90.69;101811.33;100328;1297;88299;-62
2022/11/27 01:27:41;;;;;;;52.20;24.90;;;;;;;1.26;90.54;101810.80;100393;1297;81344;-62
2022/11/27 01:30:14;;;;;;;56.70;25.80;;;;;;;1.22;90.62;101813.02;100354;1297;100436;-62
2022/11/27 01:32:43;;;;;;;52.20;24.90;;;;;;;1.18;90.62;101810.20;100337;1298;95150;-60
2022/11/27 01:35:16;;;;;;;57.80;27.30;;;;;;;1.24;90.62;101811.81;100335;1297;82244;-61
2022/11/27 01:37:48;;;;;;;53.90;25.30;;;;;;;1.31;90.46;101809.58;100271;1294;89717;-61
2022/11/27 01:40:19;;;;;;;56.20;26.10;;;;;;;1.31;90.59;101813.33;100383;1294;78733;-61
2022/11/27 01:42:49;;;;;;;55.00;26.20;;;;;;;1.35;90.48;101812.33;100372;1291;99078;-62
2022/11/27 01:45:24;;;;;;;57.40;27.80;;;;;;;1.30;90.58;101816.59;100331;1297;93829;-61
2022/11/27 01:48:01;;;;;;;56.80;26.30;;;;;;;1.31;90.48;101810.63;100365;1297;81271;-61
2022/11/27 01:50:37;;;;;;;52.30;28.00;;;;;;;1.24;90.64;101809.30;100323;1297;87277;-62
2022/11/27 01:53:17;;;;;;;56.10;26.90;;;;;;;1.19;90.64;101806.97;100323;1299;79154;-61
2022/11/27 01:55:57;;;;;;;55.30;28.50;;;;;;;1.16;90.61;101812.14;100344;1297;98455;-61
2022/11/27 01:58:33;;;;;;;62.20;26.90;;;;;;;1.11;90.73;101815.75;100322;1290;95020;-61
2022/11/27 02:01:06;;;;;;;58.80;28.20;;;;;;;1.06;90.67;101817.86;100326;1299;82379;-59
2022/11/27 02:03:38;;;;;;;60.10;28.00;;;;;;;1.06;90.79;101824.43;100306;1297;87721;-59
2022/11/27 02:06:11;;;;;;;66.30;29.40;;;;;;;1.09;90.89;101830.28;100335;1297;78321;-61
2022/11/27 02:08:41;;;;;;;61.10;29.20;;;;;;;1.13;90.89;101830.54;100369;1297;97714;-61
2022/11/27 02:11:21;;;;;;;63.30;31.40;;;;;;;1.15;90.97;101832.35;100349;1297;95251;-59
2022/11/27 02:14:02;;;;;;;60.00;30.20;;;;;;;1.23;90.91;101840.07;100361;1297;81315;-59
2022/11/27 02:16:48;;;;;;;70.50;31.50;;;;;;;1.26;90.92;101842.70;100385;1297;86785;-61
2022/11/27 02:19:46;;;;;;;67.10;32.40;;;;;;;1.27;90.91;101840.38;100441;1297;78441;-62
2022/11/27 02:22:32;;;;;;;63.30;31.60;;;;;;;1.34;90.86;101835.83;100400;1297;99412;-62
2022/11/27 02:25:13;;;;;;;64.50;32.30;;;;;;;1.37;90.98;101834.59;100375;1292;95023;-61
2022/11/27 02:28:30;;;;;;;60.80;32.30;;;;;;;1.41;90.86;101836.63;100394;1292;82688;-61
2022/11/27 02:31:10;;;;;;;66.00;33.60;;;;;;;1.41;90.87;101844.77;100181;1297;86585;-58
2022/11/27 02:33:50;;;;;;;63.90;30.20;;;;;;;1.37;90.65;101845.03;99959;1297;540479;-58
2022/11/27 02:36:29;;;;;;;67.10;34.10;;;;;;;1.29;90.78;101840.23;100316;1299;100204;-58
2022/11/27 02:39:07;;;;;;;64.10;33.70;;;;;;;1.28;90.72;101839.39;100339;1297;93364;-58
2022/11/27 02:41:44;;;;;;;64.60;32.50;;;;;;;1.27;90.79;101837.36;100249;1285;81803;-59
2022/11/27 02:44:17;;;;;;;67.20;33.20;;;;;;;1.28;90.82;101838.19;100325;1292;87509;-58
2022/11/27 02:46:48;;;;;;;66.50;33.10;;;;;;;1.30;90.82;101839.61;100329;1291;80081;-59
2022/11/27 02:49:20;;;;;;;68.00;34.50;;;;;;;1.34;90.76;101837.45;100338;1297;98924;-59
2022/11/27 02:51:57;;;;;;;77.20;34.60;;;;;;;1.36;90.86;101844.04;100353;1291;94152;-59
2022/11/27 02:54:36;;;;;;;77.40;36.10;;;;;;;1.42;90.68;101845.78;100314;1297;80957;-59
2022/11/27 02:57:07;;;;;;;75.30;37.50;;;;;;;1.49;90.54;101843.94;100382;1297;88825;-58
2022/11/27 02:59:39;;;;;;;75.20;36.40;;;;;;;1.47;90.52;101846.00;100354;1297;78842;-59
2022/11/27 03:02:13;;;;;;;76.10;37.80;;;;;;;1.45;90.68;101838.55;100372;1294;100336;-63
2022/11/27 03:04:54;;;;;;;81.00;37.60;;;;;;;1.44;90.74;101840.35;100379;1297;94532;-60
2022/11/27 03:07:37;;;;;;;79.60;36.60;;;;;;;1.41;90.55;101838.96;100253;1294;85048;-61
2022/11/27 03:10:18;;;;;;;79.20;36.10;;;;;;;1.37;90.60;101839.02;100314;1297;88705;-60
2022/11/27 03:12:48;;;;;;;77.80;35.80;;;;;;;1.31;90.79;101841.36;100360;1293;79617;-58
2022/11/27 03:15:22;;;;;;;78.70;37.60;;;;;;;1.29;91.00;101837.77;100391;1291;97609;-58
2022/11/27 03:18:05;;;;;;;78.40;37.30;;;;;;;1.31;90.82;101843.52;100329;1291;95289;-61
2022/11/27 03:20:44;;;;;;;83.10;38.90;;;;;;;1.29;90.91;101845.36;100292;1297;82889;-61
2022/11/27 03:23:16;;;;;;;80.20;37.60;;;;;;;1.32;90.92;101843.95;100338;1297;88213;-58
2022/11/27 03:25:52;;;;;;;76.00;35.70;;;;;;;1.31;90.98;101843.29;100305;1297;79995;-58
2022/11/27 03:28:27;;;;;;;77.70;35.90;;;;;;;1.33;90.82;101844.23;100317;1295;98580;-61
2022/11/27 03:31:01;;;;;;;81.40;36.70;;;;;;;1.35;90.93;101843.22;100319;1294;95008;-59
2022/11/27 03:33:33;;;;;;;78.90;36.20;;;;;;;1.40;90.92;101846.26;100335;1294;81436;-59
2022/11/27 03:36:14;;;;;;;82.90;38.60;;;;;;;1.41;91.07;101844.46;100324;1293;88318;-60
2022/11/27 03:38:44;;;;;;;80.50;34.30;;;;;;;1.45;90.91;101845.77;100361;1292;81235;-62
2022/11/27 03:41:24;;;;;;;85.70;37.90;;;;;;;1.45;90.98;101847.18;100386;1297;99538;-59
2022/11/27 03:44:04;;;;;;;84.40;38.70;;;;;;;1.48;91.09;101844.35;100341;1294;95607;-59
2022/11/27 03:46:51;;;;;;;79.70;38.10;;;;;;;1.54;91.04;101837.76;100437;1290;82630;-59
2022/11/27 03:49:29;;;;;;;82.40;37.80;;;;;;;1.59;90.86;101839.03;100376;1297;87339;-59
2022/11/27 03:52:15;;;;;;;81.20;38.60;;;;;;;1.62;90.72;101838.85;100358;1297;76730;-61
2022/11/27 03:54:58;;;;;;;85.40;38.80;;;;;;;1.60;90.57;101841.63;100380;1291;100040;-61
2022/11/27 03:57:34;;;;;;;90.40;37.90;;;;;;;1.60;90.48;101832.73;100263;1298;94833;-58
2022/11/27 04:00:06;;;;;;;84.80;37.60;;;;;;;1.55;90.51;101834.46;100352;1297;82183;-58
2022/11/27 04:02:46;;;;;;;81.20;36.40;;;;;;;1.54;90.59;101838.66;100340;1297;88519;-61
2022/11/27 04:05:16;;;;;;;79.70;36.80;;;;;;;1.54;90.44;101839.67;100348;1290;80502;-61
2022/11/27 04:07:46;;;;;;;76.10;35.00;;;;;;;1.55;90.49;101841.92;100366;1296;98600;-62
2022/11/27 04:10:16;;;;;;;80.40;35.40;;;;;;;1.52;90.69;101843.02;100316;1294;93771;-61
2022/11/27 04:12:45;;;;;;;75.10;35.00;;;;;;;1.51;90.81;101845.37;100403;1294;83222;-61
2022/11/27 04:15:16;;;;;;;89.30;38.00;;;;;;;1.59;90.71;101834.59;100361;1294;88409;-61
2022/11/27 04:17:46;;;;;;;78.90;35.60;;;;;;;1.58;90.69;101836.39;100400;1297;80082;-61
2022/11/27 04:20:21;;;;;;;80.60;37.40;;;;;;;1.58;90.63;101838.22;100355;1291;99859;-61
2022/11/27 04:22:50;;;;;;;77.00;37.80;;;;;;;1.57;90.72;101836.52;100372;1298;93830;-61
2022/11/27 04:25:22;;;;;;;80.60;38.40;;;;;;;1.58;90.56;101836.83;100372;1293;82997;-61
2022/11/27 04:27:53;;;;;;;72.50;36.00;;;;;;;1.49;90.59;101842.34;100270;1300;88344;-59
2022/11/27 04:30:25;;;;;;;81.70;37.10;;;;;;;1.47;90.73;101843.39;100397;1298;81130;-58
2022/11/27 04:32:56;;;;;;;72.60;35.30;;;;;;;1.47;90.39;101836.58;100463;1291;98391;-61
2022/11/27 04:35:25;;;;;;;76.90;35.90;;;;;;;1.45;90.50;101837.11;100366;1283;93267;-61
2022/11/27 04:37:56;;;;;;;74.30;34.20;;;;;;;1.45;90.59;101836.52;100408;1297;81738;-60
2022/11/27 04:40:30;;;;;;;79.20;35.50;;;;;;;1.46;90.62;101838.44;100378;1291;89236;-61
2022/11/27 04:42:59;;;;;;;77.70;36.20;;;;;;;1.47;90.67;101847.23;100371;1297;80895;-58
2022/11/27 04:45:33;;;;;;;79.90;35.00;;;;;;;1.48;90.80;101845.40;100380;1299;98489;-58
2022/11/27 04:48:04;;;;;;;80.60;36.90;;;;;;;1.56;90.68;101845.63;100373;1294;92594;-61
2022/11/27 04:50:34;;;;;;;78.90;39.10;;;;;;;1.54;90.84;101849.61;100335;1286;83286;-61
2022/11/27 04:53:06;;;;;;;77.90;38.40;;;;;;;1.55;90.91;101846.55;100350;1290;88065;-61
2022/11/27 04:55:41;;;;;;;78.20;37.80;;;;;;;1.56;90.86;101837.96;100332;1297;78824;-61
2022/11/27 04:58:13;;;;;;;76.50;35.70;;;;;;;1.51;90.91;101837.95;100385;1297;98098;-61
2022/11/27 05:00:44;;;;;;;78.10;36.50;;;;;;;1.45;90.96;101836.92;100332;1297;93620;-61
2022/11/27 05:03:13;;;;;;;75.20;35.50;;;;;;;1.44;90.79;101840.37;100376;1292;81836;-59
2022/11/27 05:05:44;;;;;;;83.50;36.40;;;;;;;1.40;90.89;101841.63;100314;1297;88950;-59
2022/11/27 05:08:14;;;;;;;71.60;35.80;;;;;;;1.42;90.83;101842.63;100342;1294;79183;-59
2022/11/27 05:10:47;;;;;;;79.80;36.80;;;;;;;1.43;90.83;101839.86;100343;1299;99230;-59
2022/11/27 05:13:20;;;;;;;77.30;36.80;;;;;;;1.47;90.77;101839.96;100379;1294;95538;-61
2022/11/27 05:15:53;;;;;;;75.70;36.30;;;;;;;1.52;90.70;101838.41;100299;1294;82312;-61
2022/11/27 05:18:26;;;;;;;75.20;35.90;;;;;;;1.53;90.81;101834.79;100439;1297;88817;-62
2022/11/27 05:21:08;;;;;;;77.10;36.40;;;;;;;1.50;90.84;101833.95;100439;1294;79503;-60
2022/11/27 05:23:40;;;;;;;77.90;34.70;;;;;;;1.48;90.87;101837.41;100384;1299;99905;-59
2022/11/27 05:26:10;;;;;;;90.10;36.30;;;;;;;1.46;90.78;101833.46;100421;1294;95532;-61
2022/11/27 05:28:39;;;;;;;77.10;35.60;;;;;;;1.41;90.84;101831.32;100405;1294;80397;-61
2022/11/27 05:31:13;;;;;;;77.10;33.90;;;;;;;1.43;90.94;101832.95;100354;1291;87858;-61
2022/11/27 05:33:45;;;;;;;77.10;35.60;;;;;;;1.49;90.93;101826.35;100313;1294;80528;-61
2022/11/27 05:36:17;;;;;;;76.80;35.20;;;;;;;1.48;91.02;101829.77;100305;1291;97073;-59
2022/11/27 05:38:46;;;;;;;85.70;37.30;;;;;;;1.58;90.89;101824.70;100316;1284;94095;-59
2022/11/27 05:41:18;;;;;;;79.20;37.50;;;;;;;1.65;90.68;101827.08;100365;1297;82271;-59
2022/11/27 05:43:47;;;;;;;81.70;36.70;;;;;;;1.66;90.94;101830.40;100334;1292;88795;-58
2022/11/27 05:46:22;;;;;;;79.50;37.20;;;;;;;1.69;90.73;101828.80;100346;1297;77954;-59
2022/11/27 05:48:53;;;;;;;91.20;38.00;;;;;;;1.68;90.58;101823.68;100339;1294;98403;-59
2022/11/27 05:51:25;;;;;;;85.60;37.80;;;;;;;1.69;90.42;101825.80;100335;1297;94463;-59
2022/11/27 05:53:57;;;;;;;68.60;30.60;;;;;;;1.68;90.23;101825.68;100386;1298;82701;-59
2022/11/27 05:56:31;;;;;;;81.40;36.50;;;;;;;1.61;90.24;101823.30;100303;1294;88876;-61
2022/11/27 05:59:04;;;;;;;82.80;36.40;;;;;;;1.64;90.31;101823.94;100344;1299;80398;-61
2022/11/27 06:01:36;;;;;;;83.50;35.80;;;;;;;1.59;90.53;101826.77;100381;1298;98402;-61
2022/11/27 06:04:09;;;;;;;82.50;34.40;;;;;;;1.56;90.70;101822.36;100352;1297;94872;-62
2022/11/27 06:06:40;;;;;;;82.60;36.60;;;;;;;1.61;90.69;101817.80;100376;1292;83494;-59
2022/11/27 06:09:15;;;;;;;85.60;35.50;;;;;;;1.63;91.05;101815.19;100355;1293;87921;-59
2022/11/27 06:11:46;;;;;;;85.70;36.50;;;;;;;1.61;91.00;101815.98;100335;1292;78886;-63
2022/11/27 06:14:16;;;;;;;85.30;37.30;;;;;;;1.63;91.11;101812.86;100360;1299;99992;-62
2022/11/27 06:16:48;;;;;;;85.80;36.80;;;;;;;1.62;90.93;101809.16;100334;1297;94561;-58
2022/11/27 06:19:17;;;;;;;84.70;37.20;;;;;;;1.55;90.91;101809.79;100338;1297;82016;-59
2022/11/27 06:21:47;;;;;;;89.90;38.30;;;;;;;1.54;90.95;101808.66;100335;1291;89089;-59
2022/11/27 06:24:16;;;;;;;88.20;36.60;;;;;;;1.54;90.82;101812.15;100343;1292;80910;-59
2022/11/27 06:26:51;;;;;;;91.70;38.40;;;;;;;1.59;90.76;101812.90;100309;1297;99441;-60
2022/11/27 06:29:19;;;;;;;84.00;33.80;;;;;;;1.61;90.70;101813.47;100315;1297;95470;-61
2022/11/27 06:31:48;;;;;;;87.40;34.50;;;;;;;1.64;90.72;101815.60;100312;1297;81596;-60
2022/11/27 06:34:20;;;;;;;75.40;33.90;;;;;;;1.63;90.98;101822.64;100302;1292;88973;-61
2022/11/27 06:36:52;;;;;;;83.00;37.90;;;;;;;1.65;91.17;101826.39;100327;1292;79315;-58
2022/11/27 06:39:21;;;;;;;81.90;38.40;;;;;;;1.67;91.13;101829.96;100342;1297;98858;-58
2022/11/27 06:41:55;;;;;;;84.50;36.90;;;;;;;1.67;91.23;101830.55;100326;1294;92211;-61
2022/11/27 06:44:27;;;;;;;80.00;36.60;;;;;;;1.66;91.19;101831.13;100347;1292;82535;-61
2022/11/27 06:46:57;;;;;;;84.30;37.30;;;;;;;1.65;91.10;101829.91;100348;1293;89110;-61
2022/11/27 06:49:31;;;;;;;81.90;35.60;;;;;;;1.63;91.14;101832.04;100321;1294;81969;-60
2022/11/27 06:52:06;;;;;;;79.70;35.40;;;;;;;1.64;91.13;101831.98;100350;1292;99818;-58
2022/11/27 06:54:35;;;;;;;79.40;35.70;;;;;;;1.66;91.03;101829.54;100321;1291;93632;-58
2022/11/27 06:57:05;;;;;;;81.50;34.20;;;;;;;1.69;91.08;101827.52;100355;1291;83094;-62
2022/11/27 06:59:35;;;;;;;76.40;34.80;;;;;;;1.72;91.11;101825.73;100367;1292;88368;-61
2022/11/27 07:02:06;;;;;;;77.50;35.40;;;;;;;1.75;91.27;101825.89;100336;1292;78239;-59
2022/11/27 07:04:39;;;;;;;73.30;36.00;;;;;;;1.81;91.24;101833.02;100316;1281;98902;-60
2022/11/27 07:07:10;;;;;;;76.00;35.80;;;;;;;1.81;91.37;101832.10;100397;1292;94187;-61
2022/11/27 07:09:41;;;;;;;79.10;37.00;;;;;;;1.86;91.22;101825.39;100341;1294;79911;-62
2022/11/27 07:12:12;;;;;;;83.00;38.10;;;;;;;1.89;90.88;101821.50;100348;1292;89175;-61
2022/11/27 07:14:44;;;;;;;73.70;34.70;;;;;;;1.81;90.97;101820.06;100333;1286;80197;-62
2022/11/27 07:17:15;;;;;;;78.60;35.90;;;;;;;1.82;91.11;101813.23;100346;1292;97561;-58
2022/11/27 07:19:44;;;;;;;74.10;34.70;;;;;;;1.84;90.94;101810.96;100303;1297;95077;-59
2022/11/27 07:22:15;;;;;;;76.30;35.00;;;;;;;1.84;91.12;101812.23;100361;1291;82826;-62
2022/11/27 07:24:46;;;;;;;70.90;33.10;;;;;;;1.88;91.14;101812.70;100326;1299;88963;-62
2022/11/27 07:27:18;;;;;;;74.90;35.10;;;;;;;1.95;91.08;101810.44;100401;1292;80992;-58
2022/11/27 07:29:47;;;;;;;76.00;34.90;;;;;;;2.01;91.05;101805.56;100391;1293;99527;-58
2022/11/27 07:32:16;;;;;;;74.30;35.80;;;;;;;2.03;91.16;101804.94;100422;1284;94179;-59
2022/11/27 07:34:45;;;;;;;80.20;37.40;;;;;;;2.08;91.10;101805.44;100430;1293;81072;-59
2022/11/27 07:37:16;;;;;;;83.70;37.20;;;;;;;2.14;91.15;101804.39;100380;1292;89041;-61
2022/11/27 07:39:49;;;;;;;75.20;37.30;;;;;;;2.18;91.13;101800.92;100308;1294;79226;-61
2022/11/27 07:42:19;;;;;;;82.10;36.00;;;;;;;2.18;91.15;101807.46;100340;1293;99265;-62
2022/11/27 07:44:48;;;;;;;78.20;35.80;;;;;;;2.15;90.98;101805.33;100329;1298;93940;-62
2022/11/27 07:47:21;;;;;;;76.90;35.60;;;;;;;2.24;90.84;101808.83;100318;1301;82740;-62
2022/11/27 07:49:53;;;;;;;81.10;35.00;;;;;;;2.30;90.83;101807.92;100299;1292;88291;-62
2022/11/27 07:52:29;;;;;;;78.20;37.10;;;;;;;2.36;90.79;101809.83;100332;1294;81577;-60
2022/11/27 07:55:00;;;;;;;73.00;34.40;;;;;;;2.41;90.71;101810.17;100348;1300;98872;-60
2022/11/27 07:57:35;;;;;;;85.40;39.80;;;;;;;2.46;90.83;101812.89;100319;1294;95108;-61
2022/11/27 08:00:09;;;;;;;79.50;37.50;;;;;;;2.50;90.82;101814.91;100325;1295;82104;-62
2022/11/27 08:02:39;;;;;;;82.30;38.60;;;;;;;2.49;90.98;101811.77;100327;1299;87890;-62
2022/11/27 08:05:10;;;;;;;82.70;36.90;;;;;;;2.52;90.95;101811.59;100359;1294;80659;-62
2022/11/27 08:07:40;;;;;;;81.80;37.00;;;;;;;2.54;90.91;101811.09;100340;1296;98274;-61
2022/11/27 08:10:14;;;;;;;73.80;35.00;;;;;;;2.54;90.73;101811.95;100316;1293;95720;-62
2022/11/27 08:12:43;;;;;;;75.90;35.50;;;;;;;2.58;90.86;101816.85;100343;1300;83244;-61
2022/11/27 08:15:15;;;;;;;78.60;38.00;;;;;;;2.60;91.09;101814.20;100332;1300;87871;-62
2022/11/27 08:17:46;;;;;;;83.20;37.60;;;;;;;2.66;91.02;101810.76;100374;1300;80566;-59
2022/11/27 08:20:24;;;;;;;77.70;37.90;;;;;;;2.72;91.02;101815.02;100345;1299;100059;-59
2022/11/27 08:22:54;;;;;;;78.30;37.30;;;;;;;2.80;90.92;101813.02;100351;1300;95780;-59
2022/11/27 08:25:23;;;;;;;82.40;40.80;;;;;;;2.84;90.83;101812.05;100362;1294;82112;-59
2022/11/27 08:27:53;;;;;;;86.40;40.70;;;;;;;2.88;90.86;101807.65;100337;1292;88982;-62
2022/11/27 08:30:25;;;;;;;85.30;40.20;;;;;;;3.00;90.58;101803.95;100348;1299;78716;-62
2022/11/27 08:32:54;;;;;;;87.80;42.00;;;;;;;3.01;90.55;101802.67;100361;1294;99929;-61
2022/11/27 08:35:27;;;;;;;84.10;41.10;;;;;;;3.02;90.44;101804.56;100304;1293;94250;-61
2022/11/27 08:37:57;;;;;;;79.50;38.10;;;;;;;3.04;90.32;101809.36;100311;1294;82277;-62
2022/11/27 08:40:31;;;;;;;81.30;38.90;;;;;;;3.10;90.09;101808.58;100314;1292;87840;-62
2022/11/27 08:43:01;;;;;;;73.10;37.70;;;;;;;3.15;90.21;101810.36;100275;1298;81491;-63
2022/11/27 08:45:33;;;;;;;79.20;38.00;;;;;;;3.22;90.37;101816.15;100316;1300;98816;-61
2022/11/27 08:48:05;;;;;;;76.20;40.60;;;;;;;3.24;90.13;101815.46;100294;1294;93308;-61
2022/11/27 08:50:37;;;;;;;79.10;39.50;;;;;;;3.26;90.14;101817.97;100332;1295;80894;-61
2022/11/27 08:53:07;;;;;;;78.70;37.00;;;;;;;3.29;89.79;101815.09;100318;1294;88368;-62
2022/11/27 08:55:37;;;;;;;83.10;41.70;;;;;;;3.20;90.35;101813.45;100310;1292;78562;-62
2022/11/27 08:58:06;;;;;;;81.50;40.60;;;;;;;3.23;90.22;101812.45;100342;1294;100067;-62
2022/11/27 09:00:39;;;;;;;85.40;42.00;;;;;;;3.29;90.30;101815.47;100213;1293;94679;-62
2022/11/27 09:03:15;;;;;;;81.30;38.60;;;;;;;3.33;90.09;101817.64;100357;1293;83439;-61
2022/11/27 09:05:49;;;;;;;79.70;38.30;;;;;;;3.41;90.13;101816.40;100321;1300;88968;-61
2022/11/27 09:08:21;;;;;;;74.90;36.80;;;;;;;3.46;89.87;101818.13;100373;1292;79853;-62
2022/11/27 09:10:55;;;;;;;75.20;39.20;;;;;;;3.52;89.93;101822.48;100378;1294;99661;-62
2022/11/27 09:13:26;;;;;;;82.40;41.50;;;;;;;3.57;89.79;101823.38;100346;1292;94969;-61
2022/11/27 09:15:57;;;;;;;84.00;43.60;;;;;;;3.61;89.88;101824.52;100320;1297;83074;-61
2022/11/27 09:18:33;;;;;;;82.90;45.50;;;;;;;3.67;89.73;101823.05;100295;1300;87958;-62
2022/11/27 09:21:07;;;;;;;85.50;44.80;;;;;;;3.73;89.79;101824.52;100351;1292;79191;-61
2022/11/27 09:23:39;;;;;;;86.70;46.50;;;;;;;3.76;89.69;101827.04;100333;1297;98999;-62
2022/11/27 09:26:17;;;;;;;77.20;39.60;;;;;;;3.82;89.38;101836.16;100184;1294;96300;-59
2022/11/27 09:28:48;;;;;;;77.10;37.70;;;;;;;3.73;89.48;101832.05;100296;1301;80367;-59
2022/11/27 09:31:17;;;;;;;80.00;38.80;;;;;;;3.70;89.48;101837.04;100305;1292;88665;-58
2022/11/27 09:33:47;;;;;;;78.30;39.30;;;;;;;3.72;89.54;101830.29;100324;1295;81033;-58
2022/11/27 09:36:20;;;;;;;75.10;37.30;;;;;;;3.76;89.46;101834.50;100328;1292;98077;-59
2022/11/27 09:38:50;;;;;;;81.60;40.40;;;;;;;3.78;89.25;101833.66;100326;1294;94050;-59
2022/11/27 09:41:47;;;;;;;78.00;42.00;;;;;;;3.85;89.24;101831.30;100360;1298;80884;-61
2022/11/27 09:44:41;;;;;;;79.70;41.10;;;;;;;3.91;89.15;101823.91;100349;1292;89045;-62
2022/11/27 09:47:30;;;;;;;81.80;43.10;;;;;;;3.97;89.08;101815.46;100318;1293;79755;-59
2022/11/27 09:50:08;;;;;;;79.70;41.70;;;;;;;3.96;89.27;101813.73;100335;1295;100212;-59
2022/11/27 09:52:46;;;;;;;82.80;40.70;;;;;;;3.94;89.27;101811.26;100289;1300;95382;-61
2022/11/27 09:55:27;;;;;;;78.50;41.40;;;;;;;4.01;89.18;101810.52;100275;1300;80376;-61
2022/11/27 09:58:06;;;;;;;75.90;40.40;;;;;;;4.09;89.11;101814.90;100331;1294;88490;-60
2022/11/27 10:00:36;;;;;;;77.40;39.20;;;;;;;4.17;89.04;101817.49;100321;1300;80336;-58
2022/11/27 10:03:08;;;;;;;77.20;40.10;;;;;;;4.12;88.99;101815.39;100326;1294;99560;-60
2022/11/27 10:05:58;;;;;;;78.70;41.60;;;;;;;4.24;89.08;101815.10;100322;1294;94828;-61
2022/11/27 10:08:41;;;;;;;78.60;41.00;;;;;;;4.29;89.06;101812.40;100342;1294;81504;-61
2022/11/27 10:11:26;;;;;;;79.70;40.90;;;;;;;4.36;88.88;101807.40;100339;1292;88098;-60
2022/11/27 10:14:11;;;;;;;83.70;43.60;;;;;;;4.40;88.90;101801.20;100300;1293;79416;-61
2022/11/27 10:16:50;;;;;;;81.30;42.30;;;;;;;4.42;88.79;101799.61;100355;1293;99018;-62
2022/11/27 10:19:31;;;;;;;81.70;41.90;;;;;;;4.48;88.76;101797.73;100195;1294;94602;-61
2022/11/27 10:22:11;;;;;;;78.50;42.30;;;;;;;4.48;88.64;101792.52;100317;1300;83231;-59
2022/11/27 10:24:56;;;;;;;73.90;38.80;;;;;;;4.50;88.54;101789.91;100331;1294;86881;-59
2022/11/27 10:27:39;;;;;;;73.80;37.90;;;;;;;4.49;88.52;101787.83;100311;1294;81309;-62
2022/11/27 10:30:19;;;;;;;66.70;37.10;;;;;;;4.57;88.68;101787.02;100298;1293;100010;-61
2022/11/27 10:32:57;;;;;;;69.80;36.90;;;;;;;4.67;88.52;101781.21;100217;1293;96946;-62
2022/11/27 10:35:28;;;;;;;72.80;38.40;;;;;;;4.75;88.38;101785.06;99906;1293;458547;-61
2022/11/27 10:38:03;;;;;;;66.90;36.70;;;;;;;4.80;88.30;101779.03;100367;1294;89014;-63
2022/11/27 10:40:47;;;;;;;68.00;39.40;;;;;;;4.86;88.24;101785.33;100325;1300;79204;-62
2022/11/27 10:43:25;;;;;;;65.60;37.80;;;;;;;4.80;88.25;101785.83;100419;1301;99347;-64
2022/11/27 10:45:57;;;;;;;67.30;37.70;;;;;;;4.72;88.47;101782.86;100381;1293;94666;-62
2022/11/27 10:48:29;;;;;;;69.90;37.90;;;;;;;4.73;88.36;101778.45;100317;1294;82643;-62
2022/11/27 10:51:02;;;;;;;81.00;39.60;;;;;;;4.79;88.30;101778.53;100325;1292;88530;-57
2022/11/27 10:53:37;;;;;;;81.70;38.20;;;;;;;4.86;88.13;101772.47;100331;1293;79524;-58
2022/11/27 10:56:36;;;;;;;118.90;51.50;;;;;;;4.85;87.85;101774.53;100324;1293;100417;-57
2022/11/27 10:59:13;;;;;;;77.90;44.60;;;;;;;4.91;87.63;101777.80;100204;1294;94137;-60
2022/11/27 11:01:49;;;;;;;70.90;42.10;;;;;;;4.93;87.71;101775.98;100269;1298;80386;-58
2022/11/27 11:04:26;;;;;;;64.20;38.60;;;;;;;4.93;87.93;101780.15;100181;1293;88258;-61
2022/11/27 11:06:59;;;;;;;65.70;37.10;;;;;;;4.94;87.63;101774.02;100241;1294;80039;-59
2022/11/27 11:09:34;;;;;;;61.80;36.00;;;;;;;4.92;87.80;101772.54;100250;1301;100137;-63
2022/11/27 11:12:23;;;;;;;74.90;44.00;;;;;;;4.95;87.49;101767.79;100241;1293;96220;-60
2022/11/27 11:14:59;;;;;;;68.10;40.50;;;;;;;4.94;87.34;101771.15;100238;1294;79782;-60
2022/11/27 11:17:37;;;;;;;72.30;43.80;;;;;;;4.90;87.36;101768.58;100293;1301;87893;-61
2022/11/27 11:20:22;;;;;;;66.60;38.10;;;;;;;4.88;87.44;101769.06;100233;1293;78949;-61
2022/11/27 11:22:52;;;;;;;62.10;34.60;;;;;;;4.87;87.45;101765.92;100267;1294;98562;-58
2022/11/27 11:25:25;;;;;;;61.70;36.20;;;;;;;4.89;87.67;101762.75;100233;1294;95525;-58
2022/11/27 11:27:57;;;;;;;63.30;35.80;;;;;;;4.94;87.55;101763.61;100282;1294;82602;-58
2022/11/27 11:30:32;;;;;;;60.70;35.10;;;;;;;4.96;87.66;101760.09;100235;1293;88412;-57
2022/11/27 11:33:06;;;;;;;60.60;34.80;;;;;;;5.00;87.66;101762.11;100223;1293;80155;-59
2022/11/27 11:35:39;;;;;;;64.70;37.30;;;;;;;5.01;87.77;101761.09;100227;1293;98352;-59
2022/11/27 11:38:18;;;;;;;60.00;36.10;;;;;;;5.02;87.77;101760.84;100217;1293;94492;-61
2022/11/27 11:41:01;;;;;;;61.50;34.90;;;;;;;5.01;87.83;101765.21;100273;1295;81885;-62